Time;durP1;ratioP1;P1;durP2;ratioP2;P2;SDS_P1;SDS_P2;PMS_P1;PMS_P2;Temp;Humidity;BMP_temperature;BMP_pressure;BME280_temperature;BME280_humidity;BME280_pressure;Samples;Min_cycle;Max_cycle;Signal;HPM_P1;HPM_P2
2021/12/26 00:00:30;;;;;;;4.97;4.38;;;;;;;;;;4997772;28;20045;-68
2021/12/26 00:02:57;;;;;;;5.45;4.60;;;;;;;;;;4988756;28;20072;-68
2021/12/26 00:05:22;;;;;;;5.63;4.93;;;;;;;;;;5000740;28;20385;-69
2021/12/26 00:07:48;;;;;;;7.20;4.93;;;;;;;;;;4986944;28;20033;-68
2021/12/26 00:10:14;;;;;;;6.85;4.95;;;;;;;;;;4997228;28;20033;-68
2021/12/26 00:12:39;;;;;;;8.20;4.97;;;;;;;;;;4986362;28;20018;-68
2021/12/26 00:15:05;;;;;;;5.45;4.47;;;;;;;;;;4996856;28;20033;-68
2021/12/26 00:17:30;;;;;;;4.88;4.28;;;;;;;;;;4996372;28;20031;-68
2021/12/26 00:19:55;;;;;;;4.75;4.00;;;;;;;;;;5000791;28;20030;-68
2021/12/26 00:22:21;;;;;;;6.10;4.10;;;;;;;;;;4994431;28;20096;-68
2021/12/26 00:24:46;;;;;;;4.72;4.22;;;;;;;;;;4993472;28;20074;-68
2021/12/26 00:27:13;;;;;;;5.55;4.30;;;;;;;;;;4996109;28;20021;-68
2021/12/26 00:29:38;;;;;;;5.13;4.10;;;;;;;;;;4993976;28;20170;-68
2021/12/26 00:32:06;;;;;;;4.55;4.13;;;;;;;;;;4996559;28;20532;-68
2021/12/26 00:34:31;;;;;;;5.85;4.75;;;;;;;;;;5003677;28;20025;-68
2021/12/26 00:36:56;;;;;;;7.30;5.28;;;;;;;;;;5000751;28;20022;-68
2021/12/26 00:39:21;;;;;;;7.22;5.22;;;;;;;;;;4992690;28;20046;-68
2021/12/26 00:41:47;;;;;;;6.38;4.90;;;;;;;;;;4991099;28;20026;-68
2021/12/26 00:44:12;;;;;;;5.72;4.95;;;;;;;;;;4997600;28;20019;-68
2021/12/26 00:46:38;;;;;;;5.43;4.88;;;;;;;;;;4999430;28;20117;-68
2021/12/26 00:49:03;;;;;;;6.07;5.20;;;;;;;;;;5004319;28;20025;-68
2021/12/26 00:51:29;;;;;;;6.15;4.80;;;;;;;;;;4976696;28;20773;-68
2021/12/26 00:53:54;;;;;;;7.75;4.95;;;;;;;;;;4996436;28;20122;-68
2021/12/26 00:56:19;;;;;;;6.90;4.70;;;;;;;;;;4998779;28;20038;-69
2021/12/26 00:58:45;;;;;;;7.22;4.78;;;;;;;;;;4996146;28;20038;-68
2021/12/26 01:01:11;;;;;;;4.97;4.13;;;;;;;;;;5002004;28;20041;-67
2021/12/26 01:03:36;;;;;;;5.05;4.32;;;;;;;;;;4997570;28;20026;-67
2021/12/26 01:06:01;;;;;;;6.03;4.60;;;;;;;;;;4999610;28;20054;-67
2021/12/26 01:08:30;;;;;;;6.60;4.70;;;;;;;;;;5000949;28;20469;-66
2021/12/26 01:11:35;;;;;;;5.47;4.57;;;;;;;;;;4997958;28;20076;-67
2021/12/26 01:14:04;;;;;;;5.13;4.22;;;;;;;;;;4998420;28;20416;-67
2021/12/26 01:16:29;;;;;;;4.78;3.97;;;;;;;;;;4999267;28;20029;-67
2021/12/26 01:19:00;;;;;;;5.78;4.78;;;;;;;;;;4999338;28;20100;-67
2021/12/26 01:21:26;;;;;;;7.10;5.60;;;;;;;;;;4998515;28;20032;-67
2021/12/26 01:23:59;;;;;;;11.25;6.88;;;;;;;;;;4998876;28;20473;-66
2021/12/26 01:26:25;;;;;;;11.40;7.57;;;;;;;;;;4996167;28;20045;-67
2021/12/26 01:28:50;;;;;;;9.80;7.00;;;;;;;;;;4995665;28;20263;-67
2021/12/26 01:31:19;;;;;;;12.18;7.63;;;;;;;;;;4997564;28;20118;-67
2021/12/26 01:33:48;;;;;;;11.52;7.88;;;;;;;;;;4996029;28;20488;-67
2021/12/26 01:36:14;;;;;;;11.25;8.27;;;;;;;;;;4995819;28;20121;-67
2021/12/26 01:38:39;;;;;;;16.45;8.55;;;;;;;;;;4997356;28;20120;-67
2021/12/26 01:41:10;;;;;;;10.48;7.40;;;;;;;;;;4996033;28;20022;-67
2021/12/26 01:43:36;;;;;;;67.05;8.77;;;;;;;;;;4997639;28;20025;-67
2021/12/26 01:46:02;;;;;;;38.17;8.57;;;;;;;;;;4996502;28;20044;-66
2021/12/26 01:48:27;;;;;;;65.80;9.27;;;;;;;;;;4996981;28;20053;-66
2021/12/26 01:50:53;;;;;;;21.98;8.55;;;;;;;;;;4997118;28;20528;-67
2021/12/26 01:53:20;;;;;;;67.32;9.90;;;;;;;;;;4995487;28;20042;-67
2021/12/26 01:55:46;;;;;;;65.80;9.70;;;;;;;;;;4997347;28;20097;-67
2021/12/26 01:58:17;;;;;;;25.88;9.13;;;;;;;;;;4999777;28;20025;-66
2021/12/26 02:00:44;;;;;;;20.60;9.32;;;;;;;;;;4997286;28;20616;-67
2021/12/26 02:03:09;;;;;;;45.85;9.63;;;;;;;;;;4997824;28;20050;-67
2021/12/26 02:05:35;;;;;;;34.85;10.95;;;;;;;;;;4999935;28;20030;-67
2021/12/26 02:08:00;;;;;;;46.95;10.20;;;;;;;;;;4999188;28;20018;-67
2021/12/26 02:10:25;;;;;;;80.68;9.25;;;;;;;;;;5000287;28;20112;-67
2021/12/26 02:12:51;;;;;;;21.27;9.95;;;;;;;;;;4999198;28;20097;-66
2021/12/26 02:15:16;;;;;;;51.83;10.70;;;;;;;;;;4999470;28;20054;-66
2021/12/26 02:17:41;;;;;;;62.15;9.95;;;;;;;;;;4998831;28;20547;-67
2021/12/26 02:20:37;;;;;;;46.80;9.82;;;;;;;;;;4998375;28;20357;-67
2021/12/26 02:23:11;;;;;;;36.17;9.13;;;;;;;;;;4996934;28;20038;-66
2021/12/26 02:28:15;;;;;;;118.95;9.50;;;;;;;;;;4994396;28;20050;-66
2021/12/26 02:30:40;;;;;;;178.38;10.48;;;;;;;;;;4977776;28;20562;-67
2021/12/26 02:33:08;;;;;;;54.40;8.73;;;;;;;;;;4996373;28;20095;-67
2021/12/26 02:35:34;;;;;;;15.85;8.65;;;;;;;;;;4994943;28;20034;-66
2021/12/26 02:37:59;;;;;;;110.38;8.68;;;;;;;;;;4994336;28;20064;-67
2021/12/26 02:40:24;;;;;;;131.80;10.63;;;;;;;;;;4995346;28;20928;-66
2021/12/26 02:42:50;;;;;;;41.15;8.65;;;;;;;;;;4994139;28;20033;-66
2021/12/26 02:45:15;;;;;;;10.23;6.72;;;;;;;;;;4996188;28;20059;-66
2021/12/26 02:47:44;;;;;;;27.00;6.97;;;;;;;;;;4995252;28;20042;-67
2021/12/26 02:50:24;;;;;;;23.70;8.07;;;;;;;;;;4994873;28;20033;-66
2021/12/26 02:52:49;;;;;;;12.38;7.00;;;;;;;;;;4995085;28;20064;-67
2021/12/26 02:55:15;;;;;;;10.00;6.53;;;;;;;;;;4995019;28;20047;-66
2021/12/26 02:57:41;;;;;;;84.60;7.65;;;;;;;;;;4993137;28;20026;-67
2021/12/26 03:00:07;;;;;;;22.15;6.55;;;;;;;;;;4993311;28;20096;-67
2021/12/26 03:02:32;;;;;;;70.32;7.93;;;;;;;;;;4994389;28;20069;-67
2021/12/26 03:04:58;;;;;;;12.48;6.35;;;;;;;;;;4996229;28;20068;-67
2021/12/26 03:07:23;;;;;;;65.53;7.72;;;;;;;;;;4998632;28;20053;-67
2021/12/26 03:09:50;;;;;;;47.05;7.75;;;;;;;;;;4998469;28;20072;-67
2021/12/26 03:12:15;;;;;;;32.22;7.22;;;;;;;;;;4998477;28;20054;-67
2021/12/26 03:14:41;;;;;;;111.50;8.38;;;;;;;;;;4997097;28;20454;-67
2021/12/26 03:17:06;;;;;;;29.98;6.78;;;;;;;;;;4998217;28;20026;-66
2021/12/26 03:19:32;;;;;;;67.78;7.75;;;;;;;;;;4997373;28;20048;-67
2021/12/26 03:21:58;;;;;;;14.43;6.93;;;;;;;;;;4997344;28;20411;-67
2021/12/26 03:24:23;;;;;;;177.48;8.95;;;;;;;;;;4997015;28;20399;-67
2021/12/26 03:26:49;;;;;;;58.58;6.82;;;;;;;;;;4993348;28;20048;-66
2021/12/26 03:29:14;;;;;;;108.15;7.47;;;;;;;;;;4994754;28;20030;-67
2021/12/26 03:31:41;;;;;;;136.70;7.63;;;;;;;;;;4993940;28;20048;-67
2021/12/26 03:34:06;;;;;;;35.60;7.03;;;;;;;;;;4995849;28;20112;-66
2021/12/26 03:36:32;;;;;;;104.40;8.10;;;;;;;;;;4994468;28;20472;-67
2021/12/26 03:38:57;;;;;;;15.68;5.20;;;;;;;;;;4995364;28;20520;-67
2021/12/26 03:41:22;;;;;;;52.75;7.18;;;;;;;;;;4994981;28;20130;-66
2021/12/26 03:43:48;;;;;;;156.45;8.23;;;;;;;;;;4993587;28;20101;-66
2021/12/26 03:46:13;;;;;;;162.30;9.48;;;;;;;;;;4996803;28;20072;-66
2021/12/26 03:48:38;;;;;;;74.88;6.70;;;;;;;;;;4997320;28;20034;-66
2021/12/26 03:51:05;;;;;;;25.08;7.15;;;;;;;;;;4997182;28;20049;-67
2021/12/26 03:53:30;;;;;;;98.80;8.68;;;;;;;;;;4997050;28;20026;-66
2021/12/26 03:55:55;;;;;;;147.18;12.77;;;;;;;;;;4996031;28;20040;-67
2021/12/26 03:58:21;;;;;;;80.95;8.27;;;;;;;;;;4993670;28;20033;-67
2021/12/26 04:00:46;;;;;;;14.32;6.18;;;;;;;;;;4991539;28;20428;-67
2021/12/26 04:03:12;;;;;;;17.60;6.38;;;;;;;;;;4993721;28;20437;-66
2021/12/26 04:05:37;;;;;;;206.98;10.23;;;;;;;;;;4992862;28;20113;-67
2021/12/26 04:08:03;;;;;;;13.15;7.28;;;;;;;;;;4993432;28;20054;-67
2021/12/26 04:10:28;;;;;;;33.40;7.53;;;;;;;;;;4993282;28;20438;-66
2021/12/26 04:12:55;;;;;;;27.17;6.63;;;;;;;;;;4993500;28;20026;-66
2021/12/26 04:15:22;;;;;;;27.80;7.32;;;;;;;;;;4995176;28;20026;-67
2021/12/26 04:17:48;;;;;;;40.03;7.40;;;;;;;;;;4994588;28;20338;-67
2021/12/26 04:20:13;;;;;;;75.97;8.30;;;;;;;;;;4997488;28;20041;-67
2021/12/26 04:22:39;;;;;;;18.75;7.18;;;;;;;;;;4998242;28;20492;-67
2021/12/26 04:25:05;;;;;;;22.95;9.43;;;;;;;;;;4999487;28;20045;-66
2021/12/26 04:27:30;;;;;;;33.60;14.98;;;;;;;;;;5000948;28;20381;-66
2021/12/26 04:29:55;;;;;;;42.13;15.20;;;;;;;;;;4999869;28;20081;-66
2021/12/26 04:32:21;;;;;;;24.30;10.90;;;;;;;;;;4998598;28;20117;-66
2021/12/26 04:34:46;;;;;;;13.98;7.18;;;;;;;;;;5001578;28;20065;-67
2021/12/26 04:37:12;;;;;;;14.45;6.22;;;;;;;;;;5000417;28;20100;-66
2021/12/26 04:39:37;;;;;;;27.13;7.68;;;;;;;;;;4999738;28;20267;-66
2021/12/26 04:42:03;;;;;;;75.90;6.85;;;;;;;;;;4999426;28;20034;-67
2021/12/26 04:44:28;;;;;;;34.47;6.72;;;;;;;;;;4998455;28;20033;-66
2021/12/26 04:46:53;;;;;;;15.25;6.50;;;;;;;;;;4997535;28;20396;-67
2021/12/26 04:49:19;;;;;;;30.48;6.57;;;;;;;;;;4997763;28;20038;-67
2021/12/26 04:51:44;;;;;;;13.65;6.25;;;;;;;;;;4998397;28;20403;-67
2021/12/26 04:54:10;;;;;;;35.75;6.88;;;;;;;;;;4997313;28;20504;-67
2021/12/26 04:56:35;;;;;;;22.10;6.78;;;;;;;;;;4997895;28;20057;-66
2021/12/26 04:59:01;;;;;;;13.15;6.38;;;;;;;;;;4996751;28;20037;-66
2021/12/26 05:01:26;;;;;;;37.20;7.43;;;;;;;;;;4996188;28;20046;-66
2021/12/26 05:03:51;;;;;;;20.25;6.50;;;;;;;;;;4995939;28;20400;-66
2021/12/26 05:06:17;;;;;;;102.60;7.47;;;;;;;;;;4997756;28;20446;-67
2021/12/26 05:08:42;;;;;;;20.15;5.30;;;;;;;;;;4997681;28;20477;-67
2021/12/26 05:11:07;;;;;;;18.77;6.10;;;;;;;;;;4997937;28;20056;-66
2021/12/26 05:13:33;;;;;;;16.88;6.38;;;;;;;;;;4997340;28;20088;-67
2021/12/26 05:15:58;;;;;;;10.40;5.30;;;;;;;;;;4997478;28;20389;-66
2021/12/26 05:18:23;;;;;;;12.07;5.70;;;;;;;;;;4997095;28;20441;-66
2021/12/26 05:20:49;;;;;;;10.55;5.82;;;;;;;;;;4996998;28;20611;-67
2021/12/26 05:23:14;;;;;;;10.77;5.50;;;;;;;;;;4998017;28;20017;-66
2021/12/26 05:25:39;;;;;;;10.70;5.55;;;;;;;;;;4997309;28;20105;-66
2021/12/26 05:28:05;;;;;;;12.43;5.40;;;;;;;;;;4998251;28;20034;-66
2021/12/26 05:30:30;;;;;;;14.38;6.43;;;;;;;;;;4994828;28;20069;-66
2021/12/26 05:32:55;;;;;;;31.17;6.43;;;;;;;;;;4997676;28;20030;-66
2021/12/26 05:35:21;;;;;;;20.58;5.97;;;;;;;;;;4999113;28;20030;-67
2021/12/26 05:37:46;;;;;;;16.23;6.10;;;;;;;;;;4998046;28;20041;-66
2021/12/26 05:40:12;;;;;;;30.17;5.95;;;;;;;;;;4981740;28;20083;-67
2021/12/26 05:42:37;;;;;;;19.27;6.22;;;;;;;;;;4998850;28;20073;-66
2021/12/26 05:45:03;;;;;;;11.15;6.20;;;;;;;;;;4997381;28;20045;-67
2021/12/26 05:47:29;;;;;;;15.68;5.65;;;;;;;;;;4994915;28;20026;-66
2021/12/26 05:49:54;;;;;;;18.08;5.35;;;;;;;;;;4996584;28;20049;-66
2021/12/26 05:52:20;;;;;;;11.50;5.75;;;;;;;;;;4997078;28;20052;-67
2021/12/26 05:54:46;;;;;;;14.45;5.65;;;;;;;;;;4995562;28;20245;-67
2021/12/26 05:57:12;;;;;;;10.02;5.25;;;;;;;;;;4996442;28;20028;-67
2021/12/26 05:59:37;;;;;;;10.15;5.32;;;;;;;;;;4994635;28;20025;-67
2021/12/26 06:02:03;;;;;;;12.02;5.90;;;;;;;;;;4995583;28;20041;-67
2021/12/26 06:04:29;;;;;;;8.32;4.95;;;;;;;;;;4977822;28;20473;-66
2021/12/26 06:06:54;;;;;;;10.73;5.32;;;;;;;;;;4996368;28;20077;-66
2021/12/26 06:09:19;;;;;;;9.95;5.50;;;;;;;;;;4995933;28;20491;-66
2021/12/26 06:11:45;;;;;;;9.77;5.20;;;;;;;;;;4995693;28;20030;-67
2021/12/26 06:14:10;;;;;;;9.65;5.55;;;;;;;;;;4996290;28;20109;-66
2021/12/26 06:16:35;;;;;;;9.38;5.18;;;;;;;;;;4999772;28;20065;-66
2021/12/26 06:19:01;;;;;;;7.20;4.75;;;;;;;;;;4996047;28;20029;-67
2021/12/26 06:21:26;;;;;;;8.25;4.55;;;;;;;;;;4993818;28;20081;-66
2021/12/26 06:23:52;;;;;;;9.55;4.80;;;;;;;;;;4998803;28;20037;-66
2021/12/26 06:26:22;;;;;;;7.97;5.07;;;;;;;;;;4997904;28;20018;-67
2021/12/26 06:28:47;;;;;;;8.40;5.07;;;;;;;;;;4997084;28;21266;-66
2021/12/26 06:31:12;;;;;;;7.80;4.70;;;;;;;;;;4997590;28;20362;-67
2021/12/26 06:33:38;;;;;;;8.18;4.60;;;;;;;;;;4999099;28;20064;-67
2021/12/26 06:36:04;;;;;;;9.23;4.80;;;;;;;;;;4994969;28;20068;-66
2021/12/26 06:38:31;;;;;;;7.85;4.63;;;;;;;;;;4994687;28;20045;-67
2021/12/26 06:40:57;;;;;;;7.80;4.85;;;;;;;;;;4996490;28;20029;-67
2021/12/26 06:43:22;;;;;;;9.45;4.68;;;;;;;;;;4995941;28;20408;-67
2021/12/26 06:45:47;;;;;;;8.27;5.07;;;;;;;;;;4995858;28;20034;-66
2021/12/26 06:48:13;;;;;;;7.20;4.70;;;;;;;;;;4995244;28;20392;-67
2021/12/26 06:50:38;;;;;;;7.63;4.40;;;;;;;;;;4994714;28;20564;-67
2021/12/26 06:53:04;;;;;;;8.35;4.65;;;;;;;;;;4992582;28;20037;-66
2021/12/26 06:55:29;;;;;;;6.47;4.40;;;;;;;;;;4995774;28;20113;-67
2021/12/26 06:57:54;;;;;;;7.10;4.20;;;;;;;;;;4997599;28;20033;-66
2021/12/26 07:00:20;;;;;;;6.70;3.92;;;;;;;;;;4998059;28;20069;-66
2021/12/26 07:02:45;;;;;;;5.68;4.20;;;;;;;;;;4997235;28;20230;-69
2021/12/26 07:05:14;;;;;;;5.85;4.25;;;;;;;;;;4994638;28;20076;-69
2021/12/26 07:07:40;;;;;;;6.55;4.07;;;;;;;;;;4993993;28;20025;-69
2021/12/26 07:10:05;;;;;;;4.95;3.95;;;;;;;;;;4994304;28;20036;-69
2021/12/26 07:12:31;;;;;;;4.53;3.70;;;;;;;;;;4992601;28;20440;-68
2021/12/26 07:14:56;;;;;;;4.82;3.53;;;;;;;;;;4993394;28;20037;-67
2021/12/26 07:17:21;;;;;;;4.32;3.70;;;;;;;;;;4995031;28;20035;-68
2021/12/26 07:19:47;;;;;;;4.75;3.88;;;;;;;;;;4993875;28;20040;-69
2021/12/26 07:22:12;;;;;;;3.83;3.17;;;;;;;;;;4993524;28;20070;-68
2021/12/26 07:24:43;;;;;;;3.95;3.03;;;;;;;;;;4993901;28;20061;-68
2021/12/26 07:27:08;;;;;;;4.65;3.63;;;;;;;;;;4994757;28;20117;-67
2021/12/26 07:29:34;;;;;;;4.15;3.25;;;;;;;;;;4994282;28;20549;-68
2021/12/26 07:31:59;;;;;;;4.72;3.67;;;;;;;;;;4994179;28;20117;-68
2021/12/26 07:34:24;;;;;;;4.63;3.92;;;;;;;;;;4994505;28;20111;-68
2021/12/26 07:36:49;;;;;;;5.07;3.60;;;;;;;;;;4993648;28;20108;-67
2021/12/26 07:39:15;;;;;;;3.80;3.40;;;;;;;;;;4993758;28;20129;-68
2021/12/26 07:41:40;;;;;;;4.65;3.75;;;;;;;;;;4994717;28;20117;-69
2021/12/26 07:44:05;;;;;;;4.10;3.22;;;;;;;;;;4994595;28;20113;-68
2021/12/26 07:46:31;;;;;;;4.40;3.67;;;;;;;;;;4993819;28;20038;-69
2021/12/26 07:48:56;;;;;;;4.43;3.50;;;;;;;;;;4994394;28;20042;-67
2021/12/26 07:51:22;;;;;;;4.50;3.55;;;;;;;;;;4993088;28;20038;-68
2021/12/26 07:53:49;;;;;;;4.15;3.28;;;;;;;;;;4994276;28;20423;-69
2021/12/26 07:56:14;;;;;;;3.90;3.22;;;;;;;;;;4995570;28;20472;-68
2021/12/26 07:58:40;;;;;;;4.55;3.50;;;;;;;;;;4995901;28;20080;-67
2021/12/26 08:01:05;;;;;;;5.18;3.63;;;;;;;;;;4993896;28;20094;-68
2021/12/26 08:03:34;;;;;;;3.83;3.42;;;;;;;;;;4995848;28;20042;-68
2021/12/26 08:06:00;;;;;;;5.15;4.10;;;;;;;;;;4992178;28;20539;-67
2021/12/26 08:08:25;;;;;;;4.65;4.03;;;;;;;;;;4994236;28;20117;-67
2021/12/26 08:10:50;;;;;;;5.63;4.57;;;;;;;;;;4993215;28;20102;-68
2021/12/26 08:13:16;;;;;;;6.45;4.40;;;;;;;;;;4994104;28;20462;-67
2021/12/26 08:15:42;;;;;;;4.95;3.97;;;;;;;;;;4993688;28;20420;-68
2021/12/26 08:18:07;;;;;;;5.78;4.63;;;;;;;;;;4994245;28;20018;-68
2021/12/26 08:20:32;;;;;;;6.07;4.35;;;;;;;;;;4995095;28;20061;-68
2021/12/26 08:22:58;;;;;;;6.18;4.65;;;;;;;;;;4994581;28;20066;-68
2021/12/26 08:25:23;;;;;;;4.75;4.25;;;;;;;;;;4991551;28;20038;-69
2021/12/26 08:27:49;;;;;;;5.68;4.30;;;;;;;;;;4994236;28;20057;-67
2021/12/26 08:30:14;;;;;;;4.80;4.20;;;;;;;;;;4992621;28;20030;-68
2021/12/26 08:32:42;;;;;;;5.57;4.18;;;;;;;;;;4994360;28;20031;-69
2021/12/26 08:35:08;;;;;;;5.07;4.30;;;;;;;;;;4993712;28;20978;-68
2021/12/26 08:37:34;;;;;;;6.53;4.43;;;;;;;;;;4992817;28;20034;-68
2021/12/26 08:40:00;;;;;;;7.75;4.80;;;;;;;;;;4981332;28;20198;-68
2021/12/26 08:42:25;;;;;;;5.95;4.68;;;;;;;;;;4992772;28;20547;-68
2021/12/26 08:44:52;;;;;;;4.35;3.95;;;;;;;;;;4994276;28;20165;-68
2021/12/26 08:47:17;;;;;;;5.05;4.15;;;;;;;;;;4995268;28;20067;-68
2021/12/26 08:49:43;;;;;;;5.00;4.50;;;;;;;;;;4996568;28;20582;-68
2021/12/26 08:52:08;;;;;;;6.50;4.88;;;;;;;;;;4995737;28;20022;-68
2021/12/26 08:54:35;;;;;;;6.20;4.80;;;;;;;;;;4995139;28;20041;-67
2021/12/26 08:57:01;;;;;;;4.97;4.50;;;;;;;;;;4992566;28;20061;-69
2021/12/26 08:59:30;;;;;;;5.55;4.30;;;;;;;;;;4994260;28;20061;-68
2021/12/26 09:01:58;;;;;;;4.95;4.07;;;;;;;;;;4996039;28;20509;-69
2021/12/26 09:04:24;;;;;;;4.60;4.13;;;;;;;;;;4995227;28;20157;-68
2021/12/26 09:06:49;;;;;;;7.85;3.95;;;;;;;;;;4998718;28;20034;-67
2021/12/26 09:09:14;;;;;;;5.18;4.07;;;;;;;;;;4996838;28;20042;-68
2021/12/26 09:11:40;;;;;;;4.90;3.83;;;;;;;;;;4998215;28;20017;-69
2021/12/26 09:14:05;;;;;;;4.50;4.10;;;;;;;;;;4998600;28;20057;-68
2021/12/26 09:16:33;;;;;;;4.30;3.83;;;;;;;;;;4996306;28;20550;-68
2021/12/26 09:19:02;;;;;;;5.15;3.92;;;;;;;;;;4995038;28;20673;-69
2021/12/26 09:21:28;;;;;;;6.90;3.67;;;;;;;;;;4996872;28;20035;-67
2021/12/26 09:23:53;;;;;;;6.45;4.20;;;;;;;;;;4996238;28;20074;-68
2021/12/26 09:26:18;;;;;;;3.97;3.58;;;;;;;;;;4994721;28;20495;-68
2021/12/26 09:28:44;;;;;;;5.90;3.92;;;;;;;;;;4995961;28;20034;-68
2021/12/26 09:31:09;;;;;;;4.05;3.60;;;;;;;;;;4994496;28;20129;-69
2021/12/26 09:33:34;;;;;;;3.97;3.60;;;;;;;;;;4996688;28;20038;-68
2021/12/26 09:36:00;;;;;;;4.55;3.50;;;;;;;;;;4993352;28;20036;-68
2021/12/26 09:38:25;;;;;;;3.17;2.95;;;;;;;;;;4994122;28;20034;-69
2021/12/26 09:40:51;;;;;;;5.20;3.17;;;;;;;;;;4995296;28;20029;-68
2021/12/26 09:43:16;;;;;;;3.75;3.08;;;;;;;;;;4994851;28;20029;-68
2021/12/26 09:45:41;;;;;;;4.75;3.10;;;;;;;;;;4991845;28;20147;-67
2021/12/26 09:48:07;;;;;;;3.63;3.25;;;;;;;;;;4995307;28;20029;-68
2021/12/26 09:50:32;;;;;;;3.35;3.05;;;;;;;;;;4995103;28;20037;-69
2021/12/26 09:52:58;;;;;;;2.92;2.50;;;;;;;;;;4995127;28;20619;-68
2021/12/26 09:55:26;;;;;;;2.40;2.20;;;;;;;;;;4990943;28;20113;-68
2021/12/26 09:57:51;;;;;;;2.40;2.20;;;;;;;;;;4992013;28;20477;-68
2021/12/26 10:00:18;;;;;;;2.70;2.20;;;;;;;;;;4995550;28;20079;-69
2021/12/26 10:02:43;;;;;;;2.50;2.30;;;;;;;;;;4992716;28;20400;-68
2021/12/26 10:05:09;;;;;;;2.78;2.40;;;;;;;;;;4995321;28;20044;-68
2021/12/26 10:07:35;;;;;;;2.08;1.90;;;;;;;;;;4993457;28;20031;-68
2021/12/26 10:10:04;;;;;;;2.08;1.98;;;;;;;;;;4995382;28;20686;-69
2021/12/26 10:12:29;;;;;;;2.00;1.90;;;;;;;;;;4993079;28;20186;-68
2021/12/26 10:14:54;;;;;;;1.75;1.65;;;;;;;;;;4975518;28;20068;-68
2021/12/26 10:17:26;;;;;;;1.67;1.58;;;;;;;;;;4997192;28;20058;-69
2021/12/26 10:19:51;;;;;;;1.77;1.67;;;;;;;;;;4997357;28;20033;-68
2021/12/26 10:22:21;;;;;;;1.80;1.70;;;;;;;;;;4997792;28;20029;-68
2021/12/26 10:24:50;;;;;;;3.05;1.65;;;;;;;;;;4980776;28;20544;-69
2021/12/26 10:27:19;;;;;;;2.00;1.80;;;;;;;;;;4994663;28;20442;-68
2021/12/26 10:29:49;;;;;;;1.80;1.70;;;;;;;;;;4993422;28;20037;-69
2021/12/26 10:32:18;;;;;;;2.05;1.60;;;;;;;;;;4995005;28;20404;-68
2021/12/26 10:34:45;;;;;;;2.10;1.55;;;;;;;;;;4992328;28;20040;-69
2021/12/26 10:37:22;;;;;;;1.60;1.50;;;;;;;;;;5008960;28;20031;-68
2021/12/26 10:39:57;;;;;;;1.60;1.50;;;;;;;;;;4974754;28;20117;-70
2021/12/26 10:42:30;;;;;;;2.00;1.90;;;;;;;;;;4992221;28;20654;-68
2021/12/26 10:44:57;;;;;;;1.80;1.70;;;;;;;;;;4993284;28;20399;-68
2021/12/26 10:47:24;;;;;;;1.77;1.67;;;;;;;;;;4994642;28;20030;-68
2021/12/26 10:49:58;;;;;;;1.80;1.70;;;;;;;;;;4995351;28;20030;-68
2021/12/26 10:52:25;;;;;;;1.80;1.70;;;;;;;;;;4993843;28;20045;-68
2021/12/26 10:54:53;;;;;;;1.88;1.75;;;;;;;;;;4995873;28;20030;-69
2021/12/26 10:57:22;;;;;;;1.75;1.65;;;;;;;;;;4993869;28;20035;-68
2021/12/26 10:59:56;;;;;;;1.63;1.52;;;;;;;;;;4994530;28;20409;-68
2021/12/26 11:02:26;;;;;;;2.00;1.83;;;;;;;;;;4993675;28;20041;-68
2021/12/26 11:04:53;;;;;;;1.73;1.63;;;;;;;;;;4994169;28;20561;-68
2021/12/26 11:07:20;;;;;;;1.70;1.60;;;;;;;;;;4994082;28;20019;-69
2021/12/26 11:09:45;;;;;;;1.55;1.45;;;;;;;;;;4994235;28;20038;-69
2021/12/26 11:12:10;;;;;;;1.55;1.45;;;;;;;;;;4992946;28;20026;-68
2021/12/26 11:14:58;;;;;;;1.67;1.30;;;;;;;;;;4993836;28;20037;-69
2021/12/26 11:17:31;;;;;;;2.35;1.52;;;;;;;;;;4993354;28;20480;-70
2021/12/26 11:19:56;;;;;;;1.88;1.75;;;;;;;;;;4993099;28;20065;-69
2021/12/26 11:22:22;;;;;;;1.88;1.70;;;;;;;;;;4995057;28;20465;-68
2021/12/26 11:24:48;;;;;;;1.80;1.70;;;;;;;;;;4994081;28;20449;-68
2021/12/26 11:27:13;;;;;;;2.25;1.95;;;;;;;;;;4992684;28;20030;-69
2021/12/26 11:29:38;;;;;;;1.60;1.50;;;;;;;;;;4993678;28;20042;-69
2021/12/26 11:32:04;;;;;;;1.92;1.83;;;;;;;;;;4993866;28;20358;-68
2021/12/26 11:34:31;;;;;;;3.28;1.50;;;;;;;;;;4992779;28;20121;-69
2021/12/26 11:36:56;;;;;;;2.45;1.23;;;;;;;;;;4993566;28;20117;-68
2021/12/26 11:39:21;;;;;;;1.83;1.73;;;;;;;;;;4993227;28;20153;-69
2021/12/26 11:41:46;;;;;;;4.93;1.45;;;;;;;;;;4976665;28;20109;-68
2021/12/26 11:44:24;;;;;;;1.25;1.15;;;;;;;;;;4993333;28;20551;-68
2021/12/26 11:47:12;;;;;;;1.30;1.30;;;;;;;;;;4993070;28;20046;-68
2021/12/26 11:50:16;;;;;;;1.42;1.33;;;;;;;;;;5009014;28;20119;-68
2021/12/26 11:52:58;;;;;;;1.58;1.30;;;;;;;;;;4994272;28;20065;-68
2021/12/26 11:55:49;;;;;;;1.85;1.42;;;;;;;;;;4977711;28;20030;-68
2021/12/26 11:58:41;;;;;;;1.48;1.35;;;;;;;;;;4992960;28;20399;-68
2021/12/26 12:01:07;;;;;;;1.30;1.20;;;;;;;;;;4993863;28;20060;-69
2021/12/26 12:03:32;;;;;;;1.58;1.48;;;;;;;;;;4994322;28;20669;-68
2021/12/26 12:05:58;;;;;;;3.00;1.30;;;;;;;;;;4992344;28;20033;-68
2021/12/26 12:08:23;;;;;;;2.85;1.40;;;;;;;;;;4994141;28;20033;-68
2021/12/26 12:10:52;;;;;;;1.65;1.50;;;;;;;;;;4993600;28;20452;-68
2021/12/26 12:13:23;;;;;;;1.85;1.60;;;;;;;;;;4994011;28;20041;-68
2021/12/26 12:16:00;;;;;;;1.88;1.75;;;;;;;;;;4995023;28;20026;-69
2021/12/26 12:18:27;;;;;;;1.50;1.40;;;;;;;;;;4993516;28;20432;-69
2021/12/26 12:21:13;;;;;;;1.35;1.15;;;;;;;;;;4994025;28;20026;-68
2021/12/26 12:23:56;;;;;;;1.45;1.38;;;;;;;;;;4993590;28;20101;-69
2021/12/26 12:26:38;;;;;;;1.50;1.40;;;;;;;;;;4992912;28;20034;-70
2021/12/26 12:29:04;;;;;;;1.83;1.73;;;;;;;;;;4994826;28;20044;-68
2021/12/26 12:31:29;;;;;;;4.70;3.60;;;;;;;;;;4992838;28;20034;-68
2021/12/26 12:34:03;;;;;;;3.70;2.95;;;;;;;;;;4992317;28;20037;-72
2021/12/26 12:36:29;;;;;;;4.85;3.45;;;;;;;;;;4982627;28;20611;-71
2021/12/26 12:38:55;;;;;;;3.28;2.95;;;;;;;;;;4996710;28;20030;-70
2021/12/26 12:41:29;;;;;;;3.55;3.03;;;;;;;;;;4966582;28;20030;-68
2021/12/26 12:43:59;;;;;;;;;;;;;;;;;;4999761;28;20061;-69
2021/12/26 12:46:24;;;;;;;3.10;2.80;;;;;;;;;;4998788;28;20314;-68
2021/12/26 12:48:59;;;;;;;2.45;2.25;;;;;;;;;;5000187;28;20041;-68
2021/12/26 12:51:27;;;;;;;1.90;1.42;;;;;;;;;;5000255;28;20041;-68
2021/12/26 12:53:56;;;;;;;1.90;1.80;;;;;;;;;;5000229;28;20028;-69
2021/12/26 12:56:35;;;;;;;1.50;1.40;;;;;;;;;;4995338;28;20521;-69
2021/12/26 12:59:16;;;;;;;2.05;1.85;;;;;;;;;;4995707;28;20022;-69
2021/12/26 13:01:58;;;;;;;1.60;1.50;;;;;;;;;;4994831;28;20497;-68
2021/12/26 13:04:25;;;;;;;2.60;1.80;;;;;;;;;;4995240;28;20038;-68
2021/12/26 13:06:52;;;;;;;2.13;1.60;;;;;;;;;;4999277;23;20506;-76
2021/12/26 13:09:18;;;;;;;1.60;1.50;;;;;;;;;;4976170;28;20035;-76
2021/12/26 13:11:43;;;;;;;2.17;2.08;;;;;;;;;;4977126;28;20023;-76
2021/12/26 13:14:09;;;;;;;1.85;1.40;;;;;;;;;;4976965;28;20062;-76
2021/12/26 13:16:35;;;;;;;1.63;1.52;;;;;;;;;;4973770;28;20501;-76
2021/12/26 13:19:04;;;;;;;1.70;1.60;;;;;;;;;;4991447;28;20033;-76
2021/12/26 13:21:29;;;;;;;1.42;1.25;;;;;;;;;;4975910;28;20019;-76
2021/12/26 13:23:55;;;;;;;1.50;1.40;;;;;;;;;;4976466;28;20038;-76
2021/12/26 13:26:20;;;;;;;2.80;2.50;;;;;;;;;;4976645;28;20176;-76
2021/12/26 13:28:46;;;;;;;1.50;1.40;;;;;;;;;;4976741;28;20053;-76
2021/12/26 13:31:22;;;;;;;2.10;2.00;;;;;;;;;;4976880;28;20043;-77
2021/12/26 13:33:54;;;;;;;1.15;1.13;;;;;;;;;;4992179;28;20100;-76
2021/12/26 13:36:24;;;;;;;1.27;1.17;;;;;;;;;;4960215;28;20018;-76
2021/12/26 13:38:51;;;;;;;1.40;1.30;;;;;;;;;;4977441;28;20421;-77
2021/12/26 13:41:18;;;;;;;1.30;1.20;;;;;;;;;;4976074;28;20048;-77
2021/12/26 13:43:43;;;;;;;1.63;1.30;;;;;;;;;;4977899;28;20038;-76
2021/12/26 13:46:10;;;;;;;1.52;1.27;;;;;;;;;;4975972;28;20081;-76
2021/12/26 13:48:37;;;;;;;1.52;1.20;;;;;;;;;;4992485;28;20035;-76
2021/12/26 13:51:28;;;;;;;1.10;1.10;;;;;;;;;;4973571;28;20039;-76
2021/12/26 13:54:05;;;;;;;2.63;2.42;;;;;;;;;;4976653;28;20076;-75
2021/12/26 13:56:31;;;;;;;2.92;2.55;;;;;;;;;;4975622;28;20065;-76
2021/12/26 13:58:57;;;;;;;1.33;1.23;;;;;;;;;;4976747;28;20592;-75
2021/12/26 14:01:24;;;;;;;3.03;1.50;;;;;;;;;;4974955;28;20073;-75
2021/12/26 14:03:49;;;;;;;1.00;1.00;;;;;;;;;;4992009;28;20643;-75
2021/12/26 14:06:14;;;;;;;1.00;1.00;;;;;;;;;;4974703;28;20031;-75
2021/12/26 14:08:40;;;;;;;0.93;0.90;;;;;;;;;;4972789;28;20031;-76
2021/12/26 14:11:07;;;;;;;0.73;0.73;;;;;;;;;;4960254;28;20048;-76
2021/12/26 14:13:48;;;;;;;1.00;1.00;;;;;;;;;;4976609;28;20101;-76
2021/12/26 14:16:27;;;;;;;0.90;0.90;;;;;;;;;;4991368;28;20018;-76
2021/12/26 14:18:53;;;;;;;1.10;0.88;;;;;;;;;;4961362;28;20117;-76
2021/12/26 14:21:19;;;;;;;0.95;0.95;;;;;;;;;;4990024;28;20106;-77
2021/12/26 14:23:46;;;;;;;1.05;1.05;;;;;;;;;;4975328;28;20030;-76
2021/12/26 14:26:31;;;;;;;0.80;0.80;;;;;;;;;;4974912;28;20592;-76
2021/12/26 14:29:18;;;;;;;1.27;1.17;;;;;;;;;;4974994;28;20030;-76
2021/12/26 14:31:50;;;;;;;3.88;1.20;;;;;;;;;;4990608;28;20434;-76
2021/12/26 14:34:26;;;;;;;1.08;1.08;;;;;;;;;;4990912;28;20580;-76
2021/12/26 14:36:52;;;;;;;1.55;1.45;;;;;;;;;;4974146;28;20436;-76
2021/12/26 14:39:38;;;;;;;1.35;1.25;;;;;;;;;;4991264;28;20816;-76
2021/12/26 14:42:06;;;;;;;1.30;1.20;;;;;;;;;;4960605;28;20027;-76